Time;durP1;ratioP1;P1;durP2;ratioP2;P2;SDS_P1;SDS_P2;PMS_P1;PMS_P2;Temp;Humidity;BMP_temperature;BMP_pressure;BME280_temperature;BME280_humidity;BME280_pressure;Samples;Min_cycle;Max_cycle;Signal;HPM_P1;HPM_P2
2021/01/31 00:01:32;;;;;;;;;;;;;;;21.55;34.73;100007.78;3066672;28;114338;-83
2021/01/31 00:03:06;;;;;;;;;;;;;;;21.55;34.43;100009.75;3074871;28;113877;-83
2021/01/31 00:04:37;;;;;;;;;;;;;;;21.51;34.37;100004.00;3054795;28;114333;-84
2021/01/31 00:06:09;;;;;;;;;;;;;;;21.50;34.68;99999.53;3084479;28;114134;-84
2021/01/31 00:07:40;;;;;;;;;;;;;;;21.48;34.63;99996.25;3071991;28;113993;-85
2021/01/31 00:09:11;;;;;;;;;;;;;;;21.46;34.59;100001.38;3075252;28;114137;-83
2021/01/31 00:10:42;;;;;;;;;;;;;;;21.45;34.74;99996.91;3066749;28;115392;-83
2021/01/31 00:12:14;;;;;;;;;;;;;;;21.43;34.71;99995.59;3059821;28;114371;-84
2021/01/31 00:13:47;;;;;;;;;;;;;;;21.40;34.66;99999.91;3061314;28;115635;-83
2021/01/31 00:15:19;;;;;;;;;;;;;;;21.38;34.81;99998.59;3072372;28;114604;-84
2021/01/31 00:16:51;;;;;;;;;;;;;;;21.35;34.76;99999.28;3075401;28;117308;-82
2021/01/31 00:18:26;;;;;;;;;;;;;;;21.37;34.96;99994.97;3062075;28;114399;-81
2021/01/31 00:19:57;;;;;;;;;;;;;;;21.33;34.98;99993.16;3071524;28;114907;-80
2021/01/31 00:21:29;;;;;;;;;;;;;;;21.32;34.90;99992.34;3065051;28;116842;-80
2021/01/31 00:23:02;;;;;;;;;;;;;;;21.33;34.91;100004.41;3076622;28;114458;-80
2021/01/31 00:24:34;;;;;;;;;;;;;;;21.30;34.92;100003.91;3053310;28;115398;-80
2021/01/31 00:26:05;;;;;;;;;;;;;;;21.29;34.95;100007.06;3071742;28;118502;-80
2021/01/31 00:27:36;;;;;;;;;;;;;;;21.28;34.99;100005.41;3055100;28;115260;-80
2021/01/31 00:29:07;;;;;;;;;;;;;;;21.27;35.19;100006.56;3077606;28;114529;-80
2021/01/31 00:30:41;;;;;;;;;;;;;;;21.26;34.95;100010.53;3059126;28;116166;-81
2021/01/31 00:32:13;;;;;;;;;;;;;;;21.25;34.98;100011.72;3081385;28;117227;-80
2021/01/31 00:33:44;;;;;;;;;;;;;;;21.24;35.05;100004.44;3067370;28;116435;-81
2021/01/31 00:35:18;;;;;;;;;;;;;;;21.22;35.06;100006.75;3073284;28;118206;-80
2021/01/31 00:36:49;;;;;;;;;;;;;;;21.21;35.34;100014.34;3051346;28;115764;-80
2021/01/31 00:38:23;;;;;;;;;;;;;;;21.19;35.22;100021.47;3053411;28;114771;-80
2021/01/31 00:39:54;;;;;;;;;;;;;;;21.16;35.33;100011.75;3059116;28;115854;-81
2021/01/31 00:41:25;;;;;;;;;;;;;;;21.16;35.18;100013.72;3083431;28;116098;-79
2021/01/31 00:42:56;;;;;;;;;;;;;;;21.15;35.68;100014.88;3058453;28;115081;-80
2021/01/31 00:44:28;;;;;;;;;;;;;;;21.12;35.40;100012.72;3079309;28;115334;-80
2021/01/31 00:45:59;;;;;;;;;;;;;;;21.11;35.53;100013.88;3074837;28;116136;-79
2021/01/31 00:47:30;;;;;;;;;;;;;;;21.10;35.63;100010.22;3079804;28;116662;-80
2021/01/31 00:49:02;;;;;;;;;;;;;;;21.09;35.60;100014.19;3066395;28;114974;-79
2021/01/31 00:50:35;;;;;;;;;;;;;;;21.06;35.45;100014.06;3083924;28;116159;-79
2021/01/31 00:52:06;;;;;;;;;;;;;;;21.05;35.73;100015.19;3079538;28;117113;-80
2021/01/31 00:53:38;;;;;;;;;;;;;;;21.03;35.69;100009.09;3066964;28;116672;-80
2021/01/31 00:55:11;;;;;;;;;;;;;;;21.02;35.87;100011.09;3062665;28;114620;-79
2021/01/31 00:56:42;;;;;;;;;;;;;;;20.99;35.78;100003.31;3081181;28;114869;-81
2021/01/31 00:58:13;;;;;;;;;;;;;;;20.95;36.07;100007.94;3074653;28;114559;-80
2021/01/31 00:59:45;;;;;;;;;;;;;;;20.94;35.84;100003.50;3069563;28;114366;-79
2021/01/31 01:01:17;;;;;;;;;;;;;;;20.95;35.77;100001.50;3051360;28;114484;-80
2021/01/31 01:02:49;;;;;;;;;;;;;;;20.94;36.17;100003.50;3079629;28;113918;-79
2021/01/31 01:04:20;;;;;;;;;;;;;;;20.93;35.98;100006.66;3054285;28;114545;-79
2021/01/31 01:05:52;;;;;;;;;;;;;;;20.88;36.02;100007.66;3059330;28;114235;-80
2021/01/31 01:07:23;;;;;;;;;;;;;;;20.86;35.91;100007.97;3070040;28;113995;-80
2021/01/31 01:08:54;;;;;;;;;;;;;;;20.85;36.26;100014.75;3077329;28;114631;-80
2021/01/31 01:10:27;;;;;;;;;;;;;;;20.85;36.12;100016.72;3065112;28;114629;-80
2021/01/31 01:11:59;;;;;;;;;;;;;;;20.84;36.29;100026.31;3071906;28;114135;-80
2021/01/31 01:13:31;;;;;;;;;;;;;;;20.82;36.27;100020.22;3066711;28;114403;-78
2021/01/31 01:15:04;;;;;;;;;;;;;;;20.79;36.37;100024.53;3075121;28;114040;-79
2021/01/31 01:16:35;;;;;;;;;;;;;;;20.79;36.39;100029.31;3055432;28;115250;-80
2021/01/31 01:18:07;;;;;;;;;;;;;;;20.77;36.04;100026.81;3064389;28;114130;-80
2021/01/31 01:19:38;;;;;;;;;;;;;;;20.77;36.48;100020.38;3063261;28;115373;-80
2021/01/31 01:21:13;;;;;;;;;;;;;;;20.75;36.31;100022.72;3083245;28;115141;-80
2021/01/31 01:22:45;;;;;;;;;;;;;;;20.75;36.61;100011.47;3052341;28;115433;-80
2021/01/31 01:24:18;;;;;;;;;;;;;;;20.73;36.32;100023.03;3058453;28;116609;-79
2021/01/31 01:25:49;;;;;;;;;;;;;;;20.71;36.38;100021.72;3074115;28;115048;-81
2021/01/31 01:27:21;;;;;;;;;;;;;;;20.71;36.51;100030.97;3046576;28;114616;-80
2021/01/31 01:28:52;;;;;;;;;;;;;;;20.72;36.40;100029.78;3069320;28;116300;-79
2021/01/31 01:30:25;;;;;;;;;;;;;;;20.69;36.64;100024.84;3052044;28;115661;-81
2021/01/31 01:31:57;;;;;;;;;;;;;;;20.70;36.51;100025.69;3053773;28;114343;-81
2021/01/31 01:33:28;;;;;;;;;;;;;;;20.70;36.30;100034.09;3077757;28;117402;-80
2021/01/31 01:35:00;;;;;;;;;;;;;;;20.68;36.31;100039.22;3053622;28;119148;-80
2021/01/31 01:36:31;;;;;;;;;;;;;;;20.66;36.20;100036.75;3066626;28;115472;-78
2021/01/31 01:38:02;;;;;;;;;;;;;;;20.66;36.65;100039.56;3066710;28;115220;-74
2021/01/31 01:39:34;;;;;;;;;;;;;;;20.63;36.71;100034.59;3062109;28;116075;-74
2021/01/31 01:41:05;;;;;;;;;;;;;;;20.64;36.45;100033.44;3063561;28;114845;-81
2021/01/31 01:42:36;;;;;;;;;;;;;;;20.35;31.25;100031.28;3071584;28;116679;-74
2021/01/31 01:44:07;;;;;;;;;;;;;;;20.22;28.88;100034.22;3071507;28;117896;-79
2021/01/31 01:45:38;;;;;;;;;;;;;;;20.19;30.60;100035.72;3052086;28;116744;-83
2021/01/31 01:47:13;;;;;;;;;;;;;;;20.22;33.58;100034.22;3059556;28;116148;-79
2021/01/31 01:48:46;;;;;;;;;;;;;;;20.22;34.40;100034.22;3057234;28;116955;-79
2021/01/31 01:50:22;;;;;;;;;;;;;;;20.25;34.58;100042.84;3080560;28;117029;-79
2021/01/31 01:51:53;;;;;;;;;;;;;;;20.26;34.80;100035.25;3061987;28;115872;-79
2021/01/31 01:53:26;;;;;;;;;;;;;;;20.24;35.00;100041.16;3084472;28;115620;-79
2021/01/31 01:55:01;;;;;;;;;;;;;;;20.28;35.14;100047.78;3055311;28;116663;-79
2021/01/31 01:56:36;;;;;;;;;;;;;;;20.30;34.97;100044.69;3064657;28;114672;-80
2021/01/31 01:58:12;;;;;;;;;;;;;;;20.27;35.23;100053.69;3077765;28;115956;-79
2021/01/31 01:59:44;;;;;;;;;;;;;;;20.25;35.52;100058.84;3075463;28;114297;-78
2021/01/31 02:01:19;;;;;;;;;;;;;;;20.24;35.48;100052.41;3051353;28;114168;-79
2021/01/31 02:02:54;;;;;;;;;;;;;;;20.22;35.68;100060.28;3081133;28;113885;-79
2021/01/31 02:04:27;;;;;;;;;;;;;;;20.21;35.77;100049.44;3060609;28;114275;-79
2021/01/31 02:06:04;;;;;;;;;;;;;;;20.21;35.96;100060.66;3077887;28;114640;-78
2021/01/31 02:07:35;;;;;;;;;;;;;;;20.20;35.87;100059.00;3053424;28;114280;-79
2021/01/31 02:09:07;;;;;;;;;;;;;;;20.19;35.96;100054.53;3078147;28;114030;-80
2021/01/31 02:10:38;;;;;;;;;;;;;;;20.19;36.10;100060.97;3055942;28;115381;-79
2021/01/31 02:12:09;;;;;;;;;;;;;;;20.18;36.27;100052.88;3072503;28;113978;-79
2021/01/31 02:13:42;;;;;;;;;;;;;;;20.17;36.19;100052.03;3054852;28;114188;-78
2021/01/31 02:15:15;;;;;;;;;;;;;;;20.15;36.36;100047.91;3071939;28;114159;-79
2021/01/31 02:16:56;;;;;;;;;;;;;;;20.14;36.21;100055.50;3061675;28;113566;-80
2021/01/31 02:18:35;;;;;;;;;;;;;;;20.14;36.35;100049.06;3079379;28;113890;-80
2021/01/31 02:20:14;;;;;;;;;;;;;;;20.14;36.17;100049.91;3054147;28;114481;-79
2021/01/31 02:21:55;;;;;;;;;;;;;;;20.12;36.37;100049.41;3077365;28;113762;-78
2021/01/31 02:23:36;;;;;;;;;;;;;;;20.13;36.48;100042.63;3074293;28;115859;-78
2021/01/31 02:25:16;;;;;;;;;;;;;;;20.12;36.56;100049.41;3084705;28;115444;-78
2021/01/31 02:26:57;;;;;;;;;;;;;;;20.10;36.54;100042.47;3054292;28;117312;-80
2021/01/31 02:28:35;;;;;;;;;;;;;;;20.08;36.65;100042.00;3079388;28;115646;-80
2021/01/31 02:30:16;;;;;;;;;;;;;;;20.08;36.69;100039.97;3064941;28;116715;-80
2021/01/31 02:31:57;;;;;;;;;;;;;;;20.09;36.79;100043.63;3073825;28;115552;-81
2021/01/31 02:33:38;;;;;;;;;;;;;;;20.05;36.84;100051.03;3054849;28;114888;-80
2021/01/31 02:35:14;;;;;;;;;;;;;;;20.07;37.07;100051.53;3057211;28;116479;-80
2021/01/31 02:36:54;;;;;;;;;;;;;;;20.06;36.81;100049.88;3074299;28;116674;-78
2021/01/31 02:38:28;;;;;;;;;;;;;;;20.04;36.94;100040.97;3058724;28;115221;-80
2021/01/31 02:40:03;;;;;;;;;;;;;;;20.02;37.02;100035.69;3082857;28;117385;-80
2021/01/31 02:41:37;;;;;;;;;;;;;;;20.01;37.25;100039.66;3053208;28;115576;-78
2021/01/31 02:43:12;;;;;;;;;;;;;;;20.01;37.13;100039.66;3077545;28;115713;-77
2021/01/31 02:44:47;;;;;;;;;;;;;;;20.02;37.15;100037.69;3074518;28;115427;-81
2021/01/31 02:46:28;;;;;;;;;;;;;;;20.01;37.10;100041.63;3075826;28;115168;-78
2021/01/31 02:47:59;;;;;;;;;;;;;;;19.98;37.37;100041.16;3053764;28;115816;-78
2021/01/31 02:49:32;;;;;;;;;;;;;;;19.98;37.35;100043.13;3080191;28;117292;-78
2021/01/31 02:51:07;;;;;;;;;;;;;;;19.99;37.15;100044.75;3072242;28;116349;-78
2021/01/31 02:52:42;;;;;;;;;;;;;;;19.95;37.32;100038.16;3062722;28;115702;-80
2021/01/31 02:54:18;;;;;;;;;;;;;;;19.95;37.48;100047.38;3073129;28;118207;-77
2021/01/31 02:55:56;;;;;;;;;;;;;;;19.94;37.36;100045.72;3066687;28;117987;-81
2021/01/31 02:57:35;;;;;;;;;;;;;;;19.92;37.58;100048.03;3079344;28;114944;-81
2021/01/31 02:59:11;;;;;;;;;;;;;;;19.93;37.58;100040.47;3052485;28;116350;-79
2021/01/31 03:00:47;;;;;;;;;;;;;;;19.89;37.55;100033.88;3062246;28;115712;-80
2021/01/31 03:02:21;;;;;;;;;;;;;;;19.92;37.50;100041.63;3075015;28;116185;-79
2021/01/31 03:04:02;;;;;;;;;;;;;;;19.90;37.73;100041.09;3060121;28;117824;-80
2021/01/31 03:05:35;;;;;;;;;;;;;;;19.90;37.59;100032.69;3083020;28;117037;-80
2021/01/31 03:07:16;;;;;;;;;;;;;;;19.88;37.99;100032.22;3059145;28;116907;-79
2021/01/31 03:08:51;;;;;;;;;;;;;;;19.87;37.76;100025.78;3068145;28;114045;-80
2021/01/31 03:10:25;;;;;;;;;;;;;;;19.83;37.96;100027.56;3071624;28;114531;-79
2021/01/31 03:12:02;;;;;;;;;;;;;;;19.85;37.97;100025.25;3073417;28;113706;-80
2021/01/31 03:13:36;;;;;;;;;;;;;;;19.83;37.95;100036.00;3063139;28;114412;-79
2021/01/31 03:15:10;;;;;;;;;;;;;;;19.83;37.78;100032.34;3071063;28;114320;-78
2021/01/31 03:16:45;;;;;;;;;;;;;;;19.82;38.01;100037.13;3068003;28;115096;-79
2021/01/31 03:18:22;;;;;;;;;;;;;;;19.81;37.88;100032.66;3064215;28;114498;-78
2021/01/31 03:19:53;;;;;;;;;;;;;;;19.82;38.02;100030.69;3085262;28;114031;-79
2021/01/31 03:21:27;;;;;;;;;;;;;;;19.80;37.95;100030.22;3063623;28;113843;-79
2021/01/31 03:23:02;;;;;;;;;;;;;;;19.77;37.95;100026.06;3067253;28;114173;-78
2021/01/31 03:24:34;;;;;;;;;;;;;;;19.79;37.97;100023.78;3072616;28;114205;-80
2021/01/31 03:26:12;;;;;;;;;;;;;;;19.77;37.98;100026.06;3084814;28;113927;-77
2021/01/31 03:27:43;;;;;;;;;;;;;;;19.76;38.14;100034.81;3066453;28;114139;-79
2021/01/31 03:29:14;;;;;;;;;;;;;;;19.74;38.19;100032.34;3076846;28;113935;-78
2021/01/31 03:30:46;;;;;;;;;;;;;;;19.74;38.21;100032.34;3064512;28;115458;-79
2021/01/31 03:32:23;;;;;;;;;;;;;;;19.74;38.34;100023.94;3051907;28;115254;-80
2021/01/31 03:33:58;;;;;;;;;;;;;;;19.74;38.15;100026.72;3067783;28;114353;-80
2021/01/31 03:35:31;;;;;;;;;;;;;;;19.72;38.24;100029.03;3056212;28;117007;-78
2021/01/31 03:37:04;;;;;;;;;;;;;;;19.71;38.44;100026.56;3075402;28;115020;-78
2021/01/31 03:38:41;;;;;;;;;;;;;;;19.71;38.37;100027.41;3066452;28;113902;-79
2021/01/31 03:40:14;;;;;;;;;;;;;;;19.69;38.07;100023.25;3086869;28;114219;-80
2021/01/31 03:41:45;;;;;;;;;;;;;;;19.69;38.24;100032.47;3061293;28;115364;-80
2021/01/31 03:43:16;;;;;;;;;;;;;;;19.67;38.50;100029.16;3081701;28;114716;-79
2021/01/31 03:44:50;;;;;;;;;;;;;;;19.68;38.44;100030.81;3070213;28;115678;-78
2021/01/31 03:46:21;;;;;;;;;;;;;;;19.65;38.33;100031.47;3059400;28;115553;-79
2021/01/31 03:47:58;;;;;;;;;;;;;;;19.65;38.56;100028.69;3090357;28;115331;-78
2021/01/31 03:49:32;;;;;;;;;;;;;;;19.64;38.38;100024.22;3056696;28;114479;-79
2021/01/31 03:51:03;;;;;;;;;;;;;;;19.64;38.54;100021.41;3057623;28;114612;-78
2021/01/31 03:52:35;;;;;;;;;;;;;;;19.62;38.55;100025.72;3086223;28;114912;-78
2021/01/31 03:54:06;;;;;;;;;;;;;;;19.61;38.76;100026.84;3057947;28;115697;-79
2021/01/31 03:55:40;;;;;;;;;;;;;;;19.61;39.09;100024.88;3077963;28;115795;-79
2021/01/31 03:57:18;;;;;;;;;;;;;;;19.60;38.74;100028.00;3065418;28;114780;-79
2021/01/31 03:58:51;;;;;;;;;;;;;;;19.58;39.00;100031.13;3054542;28;116104;-79
2021/01/31 04:00:25;;;;;;;;;;;;;;;19.59;38.91;100034.75;3086136;28;115084;-80
2021/01/31 04:01:58;;;;;;;;;;;;;;;19.57;39.15;100035.09;3061450;28;116075;-79
2021/01/31 04:03:33;;;;;;;;;;;;;;;19.57;39.07;100031.47;3065732;28;115690;-80
2021/01/31 04:05:05;;;;;;;;;;;;;;;19.55;39.15;100034.56;3073902;28;116655;-79
2021/01/31 04:06:37;;;;;;;;;;;;;;;19.54;39.14;100035.72;3052056;28;115823;-79
2021/01/31 04:08:10;;;;;;;;;;;;;;;19.52;39.06;100038.88;3077508;28;115146;-81
2021/01/31 04:09:41;;;;;;;;;;;;;;;19.55;39.07;100037.38;3063860;28;114637;-79
2021/01/31 04:11:28;;;;;;;;;;;;;;;19.51;38.81;100037.22;3084011;28;116378;-79
2021/01/31 04:13:00;;;;;;;;;;;;;;;19.51;39.03;100041.97;3056502;28;115846;-80
2021/01/31 04:14:41;;;;;;;;;;;;;;;19.51;39.19;100040.00;3085563;28;115137;-79
2021/01/31 04:16:12;;;;;;;;;;;;;;;19.51;39.15;100039.19;3071701;28;115437;-79
2021/01/31 04:17:44;;;;;;;;;;;;;;;19.48;39.41;100046.28;3067211;28;114607;-80
2021/01/31 04:19:16;;;;;;;;;;;;;;;19.50;39.08;100043.94;3065563;28;113970;-80
2021/01/31 04:20:48;;;;;;;;;;;;;;;19.47;39.58;100041.81;3053727;28;113936;-79
2021/01/31 04:22:20;;;;;;;;;;;;;;;19.48;39.46;100051.03;3060058;28;114487;-79
2021/01/31 04:23:51;;;;;;;;;;;;;;;19.46;39.35;100047.72;3077881;28;114308;-80
2021/01/31 04:25:22;;;;;;;;;;;;;;;19.44;39.52;100041.63;3056798;28;113880;-79
2021/01/31 04:26:53;;;;;;;;;;;;;;;19.46;39.60;100047.72;3050494;28;114008;-79
2021/01/31 04:28:25;;;;;;;;;;;;;;;19.45;39.49;100046.91;3054089;28;114295;-79
2021/01/31 04:29:56;;;;;;;;;;;;;;;19.44;39.52;100050.84;3069664;28;114426;-80
2021/01/31 04:31:28;;;;;;;;;;;;;;;19.45;39.78;100046.06;3061405;28;114135;-80
2021/01/31 04:32:59;;;;;;;;;;;;;;;19.43;39.72;100053.94;3065630;28;113939;-80
2021/01/31 04:34:30;;;;;;;;;;;;;;;19.42;39.81;100055.09;3075544;28;114024;-80
2021/01/31 04:36:01;;;;;;;;;;;;;;;19.42;39.74;100052.28;3057352;28;113816;-79
2021/01/31 04:37:32;;;;;;;;;;;;;;;19.42;39.77;100060.69;3050454;28;115110;-79
2021/01/31 04:39:04;;;;;;;;;;;;;;;19.41;39.60;100061.84;3075683;28;115908;-79
2021/01/31 04:40:36;;;;;;;;;;;;;;;19.39;40.09;100062.19;3064898;28;115792;-79
2021/01/31 04:42:08;;;;;;;;;;;;;;;19.40;39.79;100058.22;3060576;28;115223;-80
2021/01/31 04:43:39;;;;;;;;;;;;;;;19.40;39.92;100055.41;3065528;28;115084;-79
2021/01/31 04:45:11;;;;;;;;;;;;;;;19.39;39.94;100053.78;3073435;28;115980;-78
2021/01/31 04:46:43;;;;;;;;;;;;;;;19.37;39.88;100052.44;3057722;28;115005;-79
2021/01/31 04:48:14;;;;;;;;;;;;;;;19.35;40.01;100047.13;3063604;28;115253;-79
2021/01/31 04:49:55;;;;;;;;;;;;;;;19.35;39.92;100055.53;3076492;28;113862;-78
2021/01/31 04:51:36;;;;;;;;;;;;;;;19.34;39.64;100047.47;3077812;28;115113;-78
2021/01/31 04:53:12;;;;;;;;;;;;;;;19.35;39.86;100054.75;3066089;28;115856;-79
2021/01/31 04:54:53;;;;;;;;;;;;;;;19.33;40.01;100048.63;3081726;28;116025;-79
2021/01/31 04:56:24;;;;;;;;;;;;;;;19.31;40.00;100039.69;3071467;28;115588;-80
2021/01/31 04:58:06;;;;;;;;;;;;;;;19.30;39.88;100047.31;3080333;28;117203;-79
2021/01/31 04:59:40;;;;;;;;;;;;;;;19.30;39.95;100046.47;3075871;28;118869;-80
2021/01/31 05:01:16;;;;;;;;;;;;;;;19.27;39.90;100042.31;3051389;28;116089;-78
2021/01/31 05:02:50;;;;;;;;;;;;;;;19.29;39.81;100050.41;3081347;28;117674;-79
2021/01/31 05:04:22;;;;;;;;;;;;;;;19.27;39.99;100055.50;3056660;28;115775;-80
2021/01/31 05:05:58;;;;;;;;;;;;;;;19.29;39.97;100051.25;3063686;28;116029;-79
2021/01/31 05:07:39;;;;;;;;;;;;;;;19.27;40.10;100047.09;3085085;28;115013;-80
2021/01/31 05:09:19;;;;;;;;;;;;;;;19.26;40.00;100043.47;3058913;28;114797;-79
2021/01/31 05:10:51;;;;;;;;;;;;;;;19.26;39.76;100039.88;3058543;28;115700;-80
2021/01/31 05:12:27;;;;;;;;;;;;;;;19.24;39.95;100040.19;3061701;28;119147;-81
2021/01/31 05:14:06;;;;;;;;;;;;;;;19.24;39.81;100050.56;3066145;28;115942;-79
2021/01/31 05:15:46;;;;;;;;;;;;;;;19.23;39.86;100040.50;3054759;28;114901;-79
2021/01/31 05:17:18;;;;;;;;;;;;;;;19.20;40.21;100050.38;3068439;28;116342;-79
2021/01/31 05:18:51;;;;;;;;;;;;;;;19.22;40.16;100047.25;3076876;28;118087;-80
2021/01/31 05:20:24;;;;;;;;;;;;;;;19.20;40.16;100043.94;3059445;28;114444;-79
2021/01/31 05:21:57;;;;;;;;;;;;;;;19.18;40.12;100044.25;3055970;28;114064;-80
2021/01/31 05:23:32;;;;;;;;;;;;;;;19.18;40.13;100040.63;3073230;28;113867;-80
2021/01/31 05:25:04;;;;;;;;;;;;;;;19.18;40.03;100047.06;3076940;28;113869;-80
2021/01/31 05:26:38;;;;;;;;;;;;;;;19.21;39.80;100048.41;3064620;28;114620;-78
2021/01/31 05:28:10;;;;;;;;;;;;;;;19.20;40.04;100053.19;3058604;28;113812;-79
2021/01/31 05:29:41;;;;;;;;;;;;;;;19.19;40.03;100054.31;3054403;28;113724;-78
2021/01/31 05:31:13;;;;;;;;;;;;;;;19.15;40.11;100047.72;3076304;28;114307;-78
2021/01/31 05:33:01;;;;;;;;;;;;;;;19.15;40.24;100046.88;3057919;28;114199;-79
2021/01/31 05:34:32;;;;;;;;;;;;;;;19.14;40.13;100043.25;3075025;28;113973;-79
2021/01/31 05:36:06;;;;;;;;;;;;;;;19.14;40.21;100042.41;3064353;28;113846;-80
2021/01/31 05:37:47;;;;;;;;;;;;;;;19.14;40.15;100042.41;3079923;28;114251;-79
2021/01/31 05:39:32;;;;;;;;;;;;;;;19.12;40.33;100039.13;3061372;28;113978;-79
2021/01/31 05:41:13;;;;;;;;;;;;;;;19.12;40.13;100044.72;3087026;28;114065;-80
2021/01/31 05:42:45;;;;;;;;;;;;;;;19.12;40.23;100047.53;3067509;28;114150;-79
2021/01/31 05:44:16;;;;;;;;;;;;;;;19.10;40.17;100051.47;3076493;28;114004;-81
2021/01/31 05:45:47;;;;;;;;;;;;;;;19.08;40.12;100047.31;3063597;28;115240;-80
2021/01/31 05:47:24;;;;;;;;;;;;;;;19.08;40.51;100050.94;3071914;28;115573;-79
2021/01/31 05:48:55;;;;;;;;;;;;;;;19.06;40.33;100044.03;3070867;28;115185;-78
2021/01/31 05:50:30;;;;;;;;;;;;;;;19.07;40.17;100049.31;3064319;28;115637;-79
2021/01/31 05:52:02;;;;;;;;;;;;;;;19.05;40.23;100047.97;3085557;28;115000;-79
2021/01/31 05:53:35;;;;;;;;;;;;;;;19.08;40.20;100048.16;3055296;28;115167;-79
2021/01/31 05:55:16;;;;;;;;;;;;;;;19.04;40.50;100044.34;3054157;28;114809;-80
2021/01/31 05:56:47;;;;;;;;;;;;;;;19.02;40.39;100037.44;3061669;28;113977;-80
2021/01/31 05:58:20;;;;;;;;;;;;;;;19.03;40.42;100039.09;3081030;28;117402;-79
2021/01/31 05:59:52;;;;;;;;;;;;;;;19.03;40.41;100028.69;3055170;28;115500;-78
2021/01/31 06:01:25;;;;;;;;;;;;;;;19.02;40.54;100032.66;3080899;28;115734;-77
2021/01/31 06:02:59;;;;;;;;;;;;;;;19.02;40.59;100031.84;3067112;28;116095;-78
2021/01/31 06:07:08;;;;;;;;;;;;;;;18.99;40.74;100027.69;3067472;28;113872;-78
2021/01/31 06:08:42;;;;;;;;;;;;;;;18.97;40.73;100023.56;3076635;28;116123;-78
2021/01/31 06:10:16;;;;;;;;;;;;;;;18.97;40.60;100018.78;3055987;28;115898;-79
2021/01/31 06:11:48;;;;;;;;;;;;;;;18.96;40.61;100016.31;3080845;28;116200;-80
2021/01/31 06:13:21;;;;;;;;;;;;;;;18.95;40.61;100004.28;3065709;28;115017;-78
2021/01/31 06:15:01;;;;;;;;;;;;;;;18.95;40.75;100011.84;3072575;28;115364;-79
2021/01/31 06:16:33;;;;;;;;;;;;;;;18.95;40.58;100006.25;3068341;28;116950;-78
2021/01/31 06:18:06;;;;;;;;;;;;;;;18.94;40.64;100011.03;3076860;28;116203;-79
2021/01/31 06:19:38;;;;;;;;;;;;;;;18.94;40.74;100008.22;3064056;28;116308;-80
2021/01/31 06:21:10;;;;;;;;;;;;;;;18.92;40.54;100004.94;3072216;28;116289;-78
2021/01/31 06:22:43;;;;;;;;;;;;;;;18.92;40.40;100013.31;3066343;28;116091;-79
2021/01/31 06:24:23;;;;;;;;;;;;;;;18.94;40.46;100013.03;3064985;28;118207;-80
2021/01/31 06:25:54;;;;;;;;;;;;;;;18.94;40.44;100013.81;3084254;28;115839;-79
2021/01/31 06:27:29;;;;;;;;;;;;;;;18.97;40.70;100013.19;3067773;28;115902;-79
2021/01/31 06:29:03;;;;;;;;;;;;;;;19.04;40.51;100010.75;3064662;28;115858;-78
2021/01/31 06:30:35;;;;;;;;;;;;;;;19.11;41.13;100013.09;3068217;28;115597;-80
2021/01/31 06:32:11;;;;;;;;;;;;;;;19.13;40.97;100002.41;3062584;28;114107;-79
2021/01/31 06:33:44;;;;;;;;;;;;;;;19.15;41.04;99997.31;3084697;28;114207;-79
2021/01/31 06:35:16;;;;;;;;;;;;;;;19.19;40.96;99997.47;3067707;28;113686;-79
2021/01/31 06:36:48;;;;;;;;;;;;;;;19.22;41.10;99994.03;3064713;28;114101;-78
2021/01/31 06:38:29;;;;;;;;;;;;;;;19.27;41.09;99993.88;3074250;28;114032;-79
2021/01/31 06:40:09;;;;;;;;;;;;;;;19.29;41.38;99994.41;3052042;28;113954;-80
2021/01/31 06:41:49;;;;;;;;;;;;;;;19.34;41.27;99989.50;3072887;28;114673;-78
2021/01/31 06:43:29;;;;;;;;;;;;;;;19.40;41.46;100001.34;3065914;28;114028;-80
2021/01/31 06:45:00;;;;;;;;;;;;;;;19.44;41.23;99994.00;3076690;28;113965;-80
2021/01/31 06:46:45;;;;;;;;;;;;;;;19.47;41.19;99988.56;3043198;28;114124;-81
2021/01/31 06:48:26;;;;;;;;;;;;;;;19.54;41.30;99996.50;3071340;28;114135;-79
2021/01/31 06:50:06;;;;;;;;;;;;;;;19.59;41.01;99979.53;3063732;28;114135;-79
2021/01/31 06:51:37;;;;;;;;;;;;;;;19.64;41.27;99981.34;3055975;28;113977;-79
2021/01/31 06:53:12;;;;;;;;;;;;;;;19.69;40.81;99990.44;3047733;28;115277;-79
2021/01/31 06:54:44;;;;;;;;;;;;;;;19.76;41.07;99978.78;3069032;28;114759;-80
2021/01/31 06:56:25;;;;;;;;;;;;;;;19.80;40.67;99974.16;3069759;28;115458;-81
2021/01/31 06:58:00;;;;;;;;;;;;;;;19.85;40.48;99974.81;3050615;28;115871;-80
2021/01/31 06:59:41;;;;;;;;;;;;;;;19.89;40.55;99978.63;3060119;28;115148;-80
2021/01/31 07:01:12;;;;;;;;;;;;;;;19.95;41.16;99977.28;3073433;28;117042;-79
2021/01/31 07:02:47;;;;;;;;;;;;;;;19.99;40.71;99975.47;3064201;28;116222;-79
2021/01/31 07:04:27;;;;;;;;;;;;;;;20.04;40.44;99962.44;3084008;28;115637;-79
2021/01/31 07:05:59;;;;;;;;;;;;;;;20.10;40.54;99963.94;3072258;28;115155;-79
2021/01/31 07:07:39;;;;;;;;;;;;;;;20.14;40.52;99968.56;3084223;28;115574;-79
2021/01/31 07:09:20;;;;;;;;;;;;;;;20.19;39.98;99967.56;3055644;28;114041;-79
2021/01/31 07:11:02;;;;;;;;;;;;;;;20.24;39.89;99968.25;3062920;28;115393;-79
2021/01/31 07:12:43;;;;;;;;;;;;;;;20.29;39.87;99964.44;3064957;28;116404;-79
2021/01/31 07:14:23;;;;;;;;;;;;;;;20.34;39.58;99964.31;3088570;28;114510;-79
2021/01/31 07:16:01;;;;;;;;;;;;;;;20.39;39.75;99967.78;3057167;28;114858;-79
2021/01/31 07:17:36;;;;;;;;;;;;;;;20.44;39.95;99965.97;3081807;28;115879;-79
2021/01/31 07:19:11;;;;;;;;;;;;;;;20.47;39.66;99974.53;3067664;28;116026;-79
2021/01/31 07:20:44;;;;;;;;;;;;;;;20.51;39.59;99978.31;3067335;28;114650;-81
2021/01/31 07:22:16;;;;;;;;;;;;;;;20.55;39.35;99979.31;3088757;28;116876;-80
2021/01/31 07:23:48;;;;;;;;;;;;;;;20.59;39.31;99987.88;3055788;28;116069;-81
2021/01/31 07:25:24;;;;;;;;;;;;;;;20.63;39.27;99983.25;3079387;28;117016;-80
2021/01/31 07:26:59;;;;;;;;;;;;;;;20.68;39.52;99977.47;3068823;28;114692;-81
2021/01/31 07:28:34;;;;;;;;;;;;;;;20.71;39.33;99980.44;3084029;28;117731;-80
2021/01/31 07:30:06;;;;;;;;;;;;;;;20.75;39.21;99987.03;3067849;28;115078;-79
2021/01/31 07:31:43;;;;;;;;;;;;;;;20.78;38.83;99977.94;3084945;28;115894;-79
2021/01/31 07:33:16;;;;;;;;;;;;;;;20.82;39.42;99972.47;3066151;28;115684;-79
2021/01/31 07:34:53;;;;;;;;;;;;;;;20.85;39.10;99969.00;3053023;28;116078;-78
2021/01/31 07:36:32;;;;;;;;;;;;;;;20.89;38.79;99960.75;3078919;28;116257;-78
2021/01/31 07:38:07;;;;;;;;;;;;;;;20.92;38.76;99949.66;3058828;28;115856;-78
2021/01/31 07:39:48;;;;;;;;;;;;;;;20.97;38.35;99948.66;3056985;28;114107;-79
2021/01/31 07:41:20;;;;;;;;;;;;;;;21.00;38.49;99945.16;3071246;28;114138;-78
2021/01/31 07:42:53;;;;;;;;;;;;;;;21.02;38.17;99940.06;3069942;28;114133;-79
2021/01/31 07:44:27;;;;;;;;;;;;;;;21.05;38.13;99940.19;3044055;28;114588;-78
2021/01/31 07:46:04;;;;;;;;;;;;;;;21.08;38.05;99944.31;3063402;28;116050;-78
2021/01/31 07:47:35;;;;;;;;;;;;;;;21.11;38.05;99941.66;3063986;28;114307;-79
2021/01/31 07:49:07;;;;;;;;;;;;;;;21.14;38.30;99954.22;3050384;28;114465;-79
2021/01/31 07:50:39;;;;;;;;;;;;;;;21.18;38.81;99949.59;3080657;28;114023;-78
2021/01/31 07:52:11;;;;;;;;;;;;;;;21.22;38.29;99947.75;3055766;28;113986;-79
2021/01/31 07:53:42;;;;;;;;;;;;;;;21.24;38.14;99949.06;3064354;28;113813;-80
2021/01/31 07:55:23;;;;;;;;;;;;;;;21.28;38.38;99960.47;3052224;28;113719;-80
2021/01/31 07:56:55;;;;;;;;;;;;;;;21.31;38.25;99959.78;3080858;28;114468;-80
2021/01/31 07:58:26;;;;;;;;;;;;;;;21.33;37.97;99963.09;3057775;28;114652;-80
2021/01/31 07:59:57;;;;;;;;;;;;;;;21.36;38.06;99962.41;3072592;28;118351;-79
2021/01/31 08:01:39;;;;;;;;;;;;;;;21.41;37.89;99961.38;3063714;28;114772;-79